地図

経路データ

SID SEASON NUMBER BASIN SUBBASIN NAME ISO_TIME NATURE LAT LON WMO_WIND WMO_PRES WMO_AGENCY TRACK_TYPE DIST2LAND LANDFALL IFLAG USA_AGENCY USA_ATCF_ID USA_LAT USA_LON USA_RECORD USA_STATUS USA_WIND USA_PRES USA_SSHS USA_R34_NE USA_R34_SE USA_R34_SW USA_R34_NW USA_R50_NE USA_R50_SE USA_R50_SW USA_R50_NW USA_R64_NE USA_R64_SE USA_R64_SW USA_R64_NW USA_POCI USA_ROCI USA_RMW USA_EYE TOKYO_LAT TOKYO_LON TOKYO_GRADE TOKYO_WIND TOKYO_PRES TOKYO_R50_DIR TOKYO_R50_LONG TOKYO_R50_SHORT TOKYO_R30_DIR TOKYO_R30_LONG TOKYO_R30_SHORT TOKYO_LAND CMA_LAT CMA_LON CMA_CAT CMA_WIND CMA_PRES HKO_LAT HKO_LON HKO_CAT HKO_WIND HKO_PRES NEWDELHI_LAT NEWDELHI_LON NEWDELHI_GRADE NEWDELHI_WIND NEWDELHI_PRES NEWDELHI_CI NEWDELHI_DP NEWDELHI_POCI REUNION_LAT REUNION_LON REUNION_TYPE REUNION_WIND REUNION_PRES REUNION_TNUM REUNION_CI REUNION_RMW REUNION_R34_NE REUNION_R34_SE REUNION_R34_SW REUNION_R34_NW REUNION_R50_NE REUNION_R50_SE REUNION_R50_SW REUNION_R50_NW REUNION_R64_NE REUNION_R64_SE REUNION_R64_SW REUNION_R64_NW BOM_LAT BOM_LON BOM_TYPE BOM_WIND BOM_PRES BOM_TNUM BOM_CI BOM_RMW BOM_R34_NE BOM_R34_SE BOM_R34_SW BOM_R34_NW BOM_R50_NE BOM_R50_SE BOM_R50_SW BOM_R50_NW BOM_R64_NE BOM_R64_SE BOM_R64_SW BOM_R64_NW BOM_ROCI BOM_POCI BOM_EYE BOM_POS_METHOD BOM_PRES_METHOD NADI_LAT NADI_LON NADI_CAT NADI_WIND NADI_PRES WELLINGTON_LAT WELLINGTON_LON WELLINGTON_WIND WELLINGTON_PRES DS824_LAT DS824_LON DS824_STAGE DS824_WIND DS824_PRES TD9636_LAT TD9636_LON TD9636_STAGE TD9636_WIND TD9636_PRES TD9635_LAT TD9635_LON TD9635_WIND TD9635_PRES TD9635_ROCI NEUMANN_LAT NEUMANN_LON NEUMANN_CLASS NEUMANN_WIND NEUMANN_PRES MLC_LAT MLC_LON MLC_CLASS MLC_WIND MLC_PRES USA_GUST BOM_GUST BOM_GUST_PER REUNION_GUST REUNION_GUST_PER USA_SEAHGT USA_SEARAD_NE USA_SEARAD_SE USA_SEARAD_SW USA_SEARAD_NW STORM_SPEED STORM_DIR
1887246N18324 1887 41 NA NA NOT_NAMED 1887-09-02 12:00:00 TS 17.5000 -36.0000 main 2000 2000 _____________O -1 17.5000 -36.0000 TS 35 17 277
1887246N18324 1887 41 NA NA NOT_NAMED 1887-09-02 15:00:00 TS 17.6008 -36.8598 main 2096 2096 _____________P -1 17.6008 -36.8598 TS 35 16 277
1887246N18324 1887 41 NA NA NOT_NAMED 1887-09-02 18:00:00 TS 17.7000 -37.7000 main 2108 2056 _____________O -1 17.7000 -37.7000 TS 35 16 277
1887246N18324 1887 41 NA NA NOT_NAMED 1887-09-02 21:00:00 TS 17.7996 -38.5076 main 2056 2006 _____________P -1 17.7996 -38.5076 TS 37 15 277
1887246N18324 1887 41 NA NA NOT_NAMED 1887-09-03 00:00:00 TS 17.9000 -39.3000 main 2006 1959 _____________O -1 17.9000 -39.3000 TS 40 15 278
1887246N18324 1887 41 NA NA NOT_NAMED 1887-09-03 03:00:00 TS 18.0072 -40.1000 main 1959 1915 _____________P -1 18.0072 -40.1000 TS 40 15 277
1887246N18324 1887 41 NA NA NOT_NAMED 1887-09-03 06:00:00 TS 18.1000 -40.9000 main 1915 1871 _____________O -1 18.1000 -40.9000 TS 40 16 276
1887246N18324 1887 41 NA NA NOT_NAMED 1887-09-03 09:00:00 TS 18.1574 -41.7226 main 1874 1823 _____________P -1 18.1574 -41.7226 TS 42 15 274
1887246N18324 1887 41 NA NA NOT_NAMED 1887-09-03 12:00:00 TS 18.2000 -42.5000 main 1823 1784 _____________O -1 18.2000 -42.5000 TS 45 14 271
1887246N18324 1887 41 NA NA NOT_NAMED 1887-09-03 15:00:00 TS 18.1746 -43.1808 main 1778 1747 _____________P -1 18.1746 -43.1808 TS 45 12 275
1887246N18324 1887 41 NA NA NOT_NAMED 1887-09-03 18:00:00 TS 18.3000 -43.8000 main 1751 1745 _____________O -1 18.3000 -43.8000 TS 45 13 299
1887246N18324 1887 41 NA NA NOT_NAMED 1887-09-03 21:00:00 TS 18.8122 -44.3993 main 1763 1763 _____________P -1 18.8122 -44.3993 TS 47 16 314
1887246N18324 1887 41 NA NA NOT_NAMED 1887-09-04 00:00:00 TS 19.4000 -45.0000 main 1790 1790 _____________O -1 19.4000 -45.0000 TS 50 15 308
1887246N18324 1887 41 NA NA NOT_NAMED 1887-09-04 03:00:00 TS 19.7449 -45.6505 main 1786 1783 _____________P -1 19.7449 -45.6505 TS 52 14 296
1887246N18324 1887 41 NA NA NOT_NAMED 1887-09-04 06:00:00 TS 20.0000 -46.3000 main 1789 1783 _____________O -1 20.0000 -46.3000 TS 55 13 292
1887246N18324 1887 41 NA NA NOT_NAMED 1887-09-04 09:00:00 TS 20.2349 -46.9230 main 1784 1780 _____________P -1 20.2349 -46.9230 TS 57 12 294
1887246N18324 1887 41 NA NA NOT_NAMED 1887-09-04 12:00:00 TS 20.5000 -47.5000 main 1787 1783 _____________O -1 20.5000 -47.5000 TS 60 12 302
1887246N18324 1887 41 NA NA NOT_NAMED 1887-09-04 15:00:00 TS 20.8847 -48.0151 main 1797 1785 _____________P -1 20.8847 -48.0151 TS 60 12 311
1887246N18324 1887 41 NA NA NOT_NAMED 1887-09-04 18:00:00 TS 21.3000 -48.5000 main 1785 1767 _____________O -1 21.3000 -48.5000 TS 60 12 310
1887246N18324 1887 41 NA NA NOT_NAMED 1887-09-04 21:00:00 TS 21.6498 -49.0004 main 1767 1726 _____________P -1 21.6498 -49.0004 TS 65 12 307
1887246N18324 1887 41 NA NA NOT_NAMED 1887-09-05 00:00:00 TS 22.0000 -49.5000 main 1726 1685 _____________O -1 22.0000 -49.5000 HU 70 12 309
1887246N18324 1887 41 NA NA NOT_NAMED 1887-09-05 03:00:00 TS 22.3998 -50.0001 main 1685 1645 _____________P -1 22.3998 -50.0001 HU 72 12 311
1887246N18324 1887 41 NA NA NOT_NAMED 1887-09-05 06:00:00 TS 22.8000 -50.5000 main 1645 1605 _____________O -1 22.8000 -50.5000 HU 75 12 307
1887246N18324 1887 41 NA NA NOT_NAMED 1887-09-05 09:00:00 TS 23.1125 -51.0157 main 1605 1570 _____________P -1 23.1125 -51.0157 HU 77 12 307
1887246N18324 1887 41 NA NA NOT_NAMED 1887-09-05 12:00:00 TS 23.5000 -51.5000 main 1570 1550 _____________O -1 23.5000 -51.5000 HU 80 13 320
1887246N18324 1887 41 NA NA NOT_NAMED 1887-09-05 15:00:00 TS 24.1123 -51.9225 main 1554 1543 _____________P -1 24.1123 -51.9225 HU 82 15 331
1887246N18324 1887 41 NA NA NOT_NAMED 1887-09-05 18:00:00 TS 24.8000 -52.3000 main 1548 1540 _____________O -1 24.8000 -52.3000 HU 85 15 332
1887246N18324 1887 41 NA NA NOT_NAMED 1887-09-05 21:00:00 TS 25.3999 -52.6728 main 1542 1540 _____________P -1 25.3999 -52.6728 HU 85 14 332
1887246N18324 1887 41 NA NA NOT_NAMED 1887-09-06 00:00:00 TS 26.0000 -53.0000 main 1548 1545 _____________O -1 26.0000 -53.0000 HU 85 14 336
1887246N18324 1887 41 NA NA NOT_NAMED 1887-09-06 03:00:00 TS 26.6500 -53.3023 main 1559 1559 _____________P -1 26.6500 -53.3023 HU 87 14 341
1887246N18324 1887 41 NA NA NOT_NAMED 1887-09-06 06:00:00 TS 27.3000 -53.5000 main 1587 1587 _____________O -1 27.3000 -53.5000 HU 90 13 350
1887246N18324 1887 41 NA NA NOT_NAMED 1887-09-06 09:00:00 TS 27.8924 -53.5455 main 1627 1627 _____________P -1 27.8924 -53.5455 HU 90 12 1
1887246N18324 1887 41 NA NA NOT_NAMED 1887-09-06 12:00:00 TS 28.5000 -53.5000 main 1670 1670 _____________O -1 28.5000 -53.5000 HU 90 13 4
1887246N18324 1887 41 NA NA NOT_NAMED 1887-09-06 15:00:00 TS 29.1925 -53.4576 main 1721 1721 _____________P -1 29.1925 -53.4576 HU 90 14 4
1887246N18324 1887 41 NA NA NOT_NAMED 1887-09-06 18:00:00 TS 29.9000 -53.4000 main 1781 1768 _____________O -1 29.9000 -53.4000 HU 90 14 3
1887246N18324 1887 41 NA NA NOT_NAMED 1887-09-06 21:00:00 TS 30.5574 -53.3793 main 1757 1698 _____________P -1 30.5574 -53.3793 HU 87 13 4
1887246N18324 1887 41 NA NA NOT_NAMED 1887-09-07 00:00:00 TS 31.2000 -53.3000 main 1698 1643 _____________O -1 31.2000 -53.3000 HU 85 13 11
1887246N18324 1887 41 NA NA NOT_NAMED 1887-09-07 03:00:00 TS 31.8501 -53.0803 main 1633 1569 _____________P -1 31.8501 -53.0803 HU 85 14 18
1887246N18324 1887 41 NA NA NOT_NAMED 1887-09-07 06:00:00 TS 32.5000 -52.8000 main 1569 1503 _____________O -1 32.5000 -52.8000 HU 85 14 18
1887246N18324 1887 41 NA NA NOT_NAMED 1887-09-07 09:00:00 TS 33.1345 -52.6007 main 1503 1426 _____________P -1 33.1345 -52.6007 HU 85 14 18
1887246N18324 1887 41 NA NA NOT_NAMED 1887-09-07 12:00:00 TS 33.8000 -52.3000 main 1426 1351 _____________O -1 33.8000 -52.3000 HU 85 16 27
1887246N18324 1887 41 NA NA NOT_NAMED 1887-09-07 15:00:00 TS 34.5353 -51.7530 main 1351 1269 _____________P -1 34.5353 -51.7530 HU 82 18 33
1887246N18324 1887 41 NA NA NOT_NAMED 1887-09-07 18:00:00 TS 35.3000 -51.1000 main 1269 1198 _____________O -1 35.3000 -51.1000 HU 80 18 34
1887246N18324 1887 41 NA NA NOT_NAMED 1887-09-07 21:00:00 TS 36.0497 -50.4989 main 1200 1123 _____________P -1 36.0497 -50.4989 HU 77 18 33
1887246N18324 1887 41 NA NA NOT_NAMED 1887-09-08 00:00:00 TS 36.8000 -49.9000 main 1123 1059 _____________O -1 36.8000 -49.9000 HU 75 18 33
1887246N18324 1887 41 NA NA NOT_NAMED 1887-09-08 03:00:00 TS 37.5497 -49.2988 main 1061 993 _____________P -1 37.5497 -49.2988 HU 72 18 32
1887246N18324 1887 41 NA NA NOT_NAMED 1887-09-08 06:00:00 TS 38.3000 -48.7000 main 993 937 _____________O -1 38.3000 -48.7000 HU 70 18 31
1887246N18324 1887 41 NA NA NOT_NAMED 1887-09-08 09:00:00 TS 39.0717 -48.1285 main 930 884 _____________P -1 39.0717 -48.1285 HU 67 18 32
1887246N18324 1887 41 NA NA NOT_NAMED 1887-09-08 12:00:00 TS 39.8000 -47.5000 main 884 859 _____________O -1 39.8000 -47.5000 HU 65 17 39
1887246N18324 1887 41 NA NA NOT_NAMED 1887-09-08 15:00:00 TS 40.4152 -46.7212 main 864 850 _____________P -1 40.4152 -46.7212 HU 60 17 45
1887246N18324 1887 41 NA NA NOT_NAMED 1887-09-08 18:00:00 TS 41.0000 -45.9000 main 852 840 _____________O -1 41.0000 -45.9000 TS 55 17 44
1887246N18324 1887 41 NA NA NOT_NAMED 1887-09-08 21:00:00 TS 41.6417 -45.1483 main 850 836 _____________P -1 41.6417 -45.1483 TS 52 17 41
1887246N18324 1887 41 NA NA NOT_NAMED 1887-09-09 00:00:00 TS 42.3000 -44.4000 main 842 841 _____________O -1 42.3000 -44.4000 TS 50 17 41
1887246N18324 1887 41 NA NA NOT_NAMED 1887-09-09 03:00:00 TS 42.9572 -43.5991 main 849 849 _____________P -1 42.9572 -43.5991 TS 45 17 42
1887246N18324 1887 41 NA NA NOT_NAMED 1887-09-09 06:00:00 TS 43.6000 -42.8000 main 870 870 _____________O -1 43.6000 -42.8000 TS 40 17 42
1887246N18324 1887 41 NA NA NOT_NAMED 1887-09-09 09:00:00 TS 44.2107 -42.0400 main 895 889 _____________P -1 44.2107 -42.0400 TS 37 16 42
1887246N18324 1887 41 NA NA NOT_NAMED 1887-09-09 12:00:00 TS 44.8000 -41.3000 main 916 _____________O -1 44.8000 -41.3000 TS 35 16 42

IBTrACS Databaseについて

本データベースは、米国NOAAが公開する1842年以降の世界の熱帯低気圧のベストトラックデータアーカイブInternational Best Track Archive for Climate Stewardship (IBTrACS)を、ウェブで閲覧しやすい形式に変換したものです。

最終更新日:2021-10-27